Time;durP1;ratioP1;P1;durP2;ratioP2;P2;SDS_P1;SDS_P2;PMS_P1;PMS_P2;Temp;Humidity;BMP_temperature;BMP_pressure;BME280_temperature;BME280_humidity;BME280_pressure;Samples;Min_cycle;Max_cycle;Signal;HPM_P1;HPM_P2
2023/05/24 00:07:12;;;;;;;2.70;0.82;;;;;;;10.57;65.53;101394.69;15676962;28;20037;-51
2023/05/24 00:14:46;;;;;;;1.27;0.90;;;;;;;10.75;65.00;101401.44;15675314;28;20304;-53
2023/05/24 00:22:19;;;;;;;1.75;1.10;;;;;;;10.55;66.19;101410.16;15674696;28;20387;-49
2023/05/24 00:29:56;;;;;;;0.52;0.52;;;;;;;10.83;64.91;101412.03;15669344;28;20156;-54
2023/05/24 00:37:29;;;;;;;0.73;0.13;;;;;;;10.71;65.54;101409.03;15655694;28;20045;-51
2023/05/24 00:45:04;;;;;;;1.07;0.80;;;;;;;10.85;65.22;101409.97;15670528;28;20444;-51
2023/05/24 00:52:37;;;;;;;8.25;1.42;;;;;;;10.83;65.09;101399.44;15653643;28;20098;-51
2023/05/24 01:00:12;;;;;;;1.43;1.03;;;;;;;10.88;64.62;101406.91;15654434;28;20108;-51
2023/05/24 01:07:54;;;;;;;1.55;0.93;;;;;;;11.02;63.99;101405.16;15671480;28;20331;-55
2023/05/24 01:15:37;;;;;;;1.23;0.47;;;;;;;10.40;65.07;101407.56;15635273;28;20342;-52
2023/05/24 01:23:33;;;;;;;;;;;;;;;10.20;65.51;101411.84;15649817;28;20045;-51
2023/05/24 01:31:07;;;;;;;2.92;0.60;;;;;;;10.60;64.30;101406.91;15666710;28;19957;-51
2023/05/24 01:38:41;;;;;;;1.55;0.85;;;;;;;10.80;63.44;101404.38;15651528;28;20059;-51
2023/05/24 01:46:25;;;;;;;0.40;0.40;;;;;;;10.56;63.65;101408.31;15650323;28;20041;-51
2023/05/24 01:53:59;;;;;;;1.13;0.65;;;;;;;10.94;62.95;101422.22;15637337;28;20508;-51
2023/05/24 02:01:34;;;;;;;0.30;0.20;;;;;;;10.75;63.58;101420.22;15651696;28;20053;-54
2023/05/24 02:09:07;;;;;;;1.55;1.15;;;;;;;10.84;63.50;101425.25;15667325;28;20536;-51
2023/05/24 02:16:45;;;;;;;0.67;0.50;;;;;;;10.35;64.29;101420.72;15649976;28;20132;-52
2023/05/24 02:24:19;;;;;;;3.33;0.30;;;;;;;10.60;63.75;101410.41;15632079;28;20509;-51
2023/05/24 02:31:56;;;;;;;6.68;0.30;;;;;;;11.08;62.95;101415.09;15644847;28;20037;-49
2023/05/24 02:39:28;;;;;;;3.35;0.88;;;;;;;10.57;63.14;101412.66;15627418;28;20087;-54
2023/05/24 02:47:02;;;;;;;1.23;0.70;;;;;;;10.25;64.04;101400.59;15645850;28;20044;-53
2023/05/24 02:54:35;;;;;;;5.57;1.13;;;;;;;10.65;62.77;101413.34;15672498;28;20080;-54
2023/05/24 03:02:13;;;;;;;0.47;0.40;;;;;;;11.14;61.09;101425.03;15720085;22;20047;-50
2023/05/24 03:09:46;;;;;;;2.13;1.17;;;;;;;10.95;61.02;101416.66;15763162;28;20028;-51
2023/05/24 03:17:21;;;;;;;1.75;1.08;;;;;;;10.89;61.58;101416.63;15734981;28;20068;-49
2023/05/24 03:24:55;;;;;;;2.70;1.13;;;;;;;10.96;61.39;101421.03;15730370;28;20070;-47
2023/05/24 03:32:29;;;;;;;0.53;0.30;;;;;;;11.06;61.38;101415.31;15755965;28;20043;-46
2023/05/24 03:40:03;;;;;;;8.15;0.85;;;;;;;10.56;61.89;101424.41;15742901;28;20389;-47
2023/05/24 03:47:58;;;;;;;3.20;0.95;;;;;;;10.59;61.09;101430.22;15752321;28;20029;-48
2023/05/24 03:55:31;;;;;;;0.38;0.35;;;;;;;10.62;61.31;101437.88;15734011;28;20056;-46
2023/05/24 04:03:05;;;;;;;1.50;1.03;;;;;;;10.42;61.70;101436.88;15745597;28;20151;-48
2023/05/24 04:10:40;;;;;;;1.52;1.02;;;;;;;10.48;61.05;101430.75;15724658;28;20176;-46
2023/05/24 04:18:18;;;;;;;0.98;0.32;;;;;;;10.30;61.74;101439.22;15720589;28;20040;-46
2023/05/24 04:25:50;;;;;;;6.22;0.98;;;;;;;10.55;60.77;101446.91;15736058;28;20093;-50
2023/05/24 04:33:27;;;;;;;7.90;1.77;;;;;;;10.54;61.62;101454.16;15739094;28;20072;-51
2023/05/24 04:41:00;;;;;;;2.25;1.30;;;;;;;10.56;60.79;101454.78;15723039;28;20493;-49
2023/05/24 04:48:34;;;;;;;1.47;1.37;;;;;;;10.75;60.35;101463.19;15738786;28;20507;-50
2023/05/24 04:56:07;;;;;;;2.15;0.88;;;;;;;10.28;59.93;101478.84;15726650;28;20433;-48
2023/05/24 05:03:43;;;;;;;1.73;1.10;;;;;;;10.40;59.97;101482.72;15736100;28;20135;-48
2023/05/24 05:11:17;;;;;;;9.32;1.30;;;;;;;10.32;60.38;101484.69;15725309;28;20029;-48
2023/05/24 05:18:51;;;;;;;0.47;0.47;;;;;;;10.53;59.77;101498.09;15736722;28;20139;-47
2023/05/24 05:26:25;;;;;;;1.90;1.55;;;;;;;10.11;61.71;101501.53;15729606;28;20139;-46
2023/05/24 05:34:00;;;;;;;0.82;0.52;;;;;;;10.31;61.67;101497.25;15779746;28;20044;-48
2023/05/24 05:41:32;;;;;;;4.68;1.58;;;;;;;10.38;61.15;101500.00;15704041;28;20673;-46
2023/05/24 05:49:07;;;;;;;0.33;0.33;;;;;;;10.40;61.81;101527.50;15737782;28;20120;-47
2023/05/24 05:56:44;;;;;;;1.17;1.08;;;;;;;10.11;62.83;101523.81;15720258;28;20075;-47
2023/05/24 06:04:18;;;;;;;23.10;2.75;;;;;;;10.41;62.29;101519.25;15720336;28;20047;-48
2023/05/24 06:11:52;;;;;;;2.17;0.88;;;;;;;10.45;62.65;101539.31;15737541;28;20078;-45
2023/05/24 06:19:26;;;;;;;;;;;;;;;10.96;61.49;101546.44;15716915;28;20572;-48
2023/05/24 06:27:00;;;;;;;0.25;0.25;;;;;;;11.31;61.23;101544.66;15742687;28;19920;-48
2023/05/24 06:34:34;;;;;;;4.60;2.17;;;;;;;11.07;62.05;101551.28;15731454;28;20033;-45
2023/05/24 06:42:07;;;;;;;3.50;1.77;;;;;;;11.72;60.69;101551.97;15732872;28;20044;-47
2023/05/24 06:49:43;;;;;;;2.42;1.73;;;;;;;11.52;61.38;101557.22;15703319;28;20048;-50
2023/05/24 06:57:16;;;;;;;0.22;0.10;;;;;;;11.68;60.47;101566.84;15716810;28;20423;-49
2023/05/24 07:04:51;;;;;;;3.53;1.17;;;;;;;10.90;62.80;101582.94;15735520;28;20048;-50
2023/05/24 07:12:24;;;;;;;1.27;0.82;;;;;;;11.38;62.30;101576.97;15734754;28;20440;-46
2023/05/24 07:19:58;;;;;;;5.13;2.53;;;;;;;11.75;61.08;101582.00;15716856;28;20140;-49
2023/05/24 07:27:31;;;;;;;2.72;1.17;;;;;;;11.32;62.08;101609.97;15727739;28;20046;-51
2023/05/24 07:35:07;;;;;;;0.93;0.77;;;;;;;11.52;61.06;101611.00;15736602;28;20044;-49
2023/05/24 07:42:40;;;;;;;10.75;2.55;;;;;;;11.49;61.85;101608.69;15740345;28;20044;-47
2023/05/24 07:50:15;;;;;;;1.60;0.82;;;;;;;10.98;62.48;101617.75;15752618;28;20086;-48
2023/05/24 07:57:48;;;;;;;2.15;1.08;;;;;;;11.38;61.30;101631.56;15752453;28;20050;-47
2023/05/24 08:05:24;;;;;;;2.50;0.70;;;;;;;11.28;61.48;101622.97;15725333;28;20048;-46
2023/05/24 08:12:57;;;;;;;4.43;1.38;;;;;;;11.77;59.86;101634.75;15726460;28;20386;-48
2023/05/24 08:20:34;;;;;;;;;;;;;;;11.46;61.19;101630.56;15725901;28;20046;-50
2023/05/24 08:28:09;;;;;;;1.58;0.73;;;;;;;11.53;61.80;101638.72;15741402;28;20052;-49
2023/05/24 08:35:47;;;;;;;1.02;0.95;;;;;;;12.10;59.63;101643.06;15743014;28;20048;-46
2023/05/24 08:43:21;;;;;;;10.10;1.30;;;;;;;12.11;60.67;101637.47;15743201;28;20032;-47
2023/05/24 08:50:57;;;;;;;2.28;1.17;;;;;;;12.24;60.59;101651.00;15759383;28;20036;-49
2023/05/24 08:58:32;;;;;;;1.42;0.70;;;;;;;12.84;58.44;101659.34;15719195;28;20553;-49
2023/05/24 09:06:09;;;;;;;0.85;0.75;;;;;;;13.15;57.79;101666.03;15738266;28;20044;-50
2023/05/24 09:13:42;;;;;;;1.27;0.68;;;;;;;12.69;58.43;101675.69;15738844;28;20037;-54
2023/05/24 09:21:19;;;;;;;0.93;0.50;;;;;;;12.75;56.81;101665.97;15722366;28;20102;-51
2023/05/24 09:28:54;;;;;;;2.92;0.30;;;;;;;13.45;56.51;101663.84;15739159;28;20384;-53
2023/05/24 09:36:29;;;;;;;0.10;0.10;;;;;;;13.21;56.46;101670.66;15739712;28;20683;-52
2023/05/24 09:44:03;;;;;;;0.43;0.43;;;;;;;13.98;54.53;101666.50;15735527;28;20387;-50
2023/05/24 09:51:38;;;;;;;;;;;;;;;13.66;54.97;101668.19;15720633;28;20064;-55
2023/05/24 09:59:12;;;;;;;0.52;0.52;;;;;;;13.26;55.14;101674.41;15737006;28;20007;-50
2023/05/24 10:06:47;;;;;;;0.28;0.28;;;;;;;13.50;55.64;101675.69;15700864;28;20052;-49
2023/05/24 10:14:21;;;;;;;0.98;0.22;;;;;;;13.88;53.39;101677.75;15717802;28;20113;-51
2023/05/24 10:21:57;;;;;;;0.95;0.73;;;;;;;14.37;51.65;101681.00;15718247;28;20079;-51
2023/05/24 10:29:44;;;;;;;2.72;0.82;;;;;;;13.47;54.01;101694.13;15732121;28;20036;-54
2023/05/24 10:37:19;;;;;;;1.40;0.32;;;;;;;13.85;53.30;101691.69;15718858;28;20485;-49
2023/05/24 10:44:56;;;;;;;1.83;0.95;;;;;;;13.80;53.21;101702.22;15736045;28;20208;-50
2023/05/24 10:52:37;;;;;;;0.20;0.13;;;;;;;14.32;52.74;101695.13;15735166;28;20049;-48
2023/05/24 11:00:32;;;;;;;0.90;0.55;;;;;;;13.85;53.17;101704.31;15683262;28;20097;-53
2023/05/24 11:08:10;;;;;;;2.28;0.95;;;;;;;14.08;51.03;101698.47;15743463;28;20072;-51
2023/05/24 11:15:50;;;;;;;0.10;0.10;;;;;;;13.68;51.63;101696.66;15739111;28;20052;-51
2023/05/24 11:23:25;;;;;;;0.68;0.43;;;;;;;14.15;51.68;101700.13;15747136;28;20051;-51
2023/05/24 11:31:08;;;;;;;0.15;0.10;;;;;;;15.28;49.43;101699.72;15726067;28;20051;-50
2023/05/24 11:38:42;;;;;;;0.40;0.40;;;;;;;14.02;51.72;101700.16;15744468;28;20489;-54
2023/05/24 11:46:16;;;;;;;0.63;0.30;;;;;;;14.12;51.97;101705.13;15737007;28;20041;-49
2023/05/24 11:53:50;;;;;;;3.13;1.00;;;;;;;15.28;48.26;101705.94;15737790;28;20131;-51
2023/05/24 12:01:24;;;;;;;1.02;0.28;;;;;;;15.72;48.05;101711.53;15757120;28;20048;-50
2023/05/24 12:08:58;;;;;;;0.88;0.52;;;;;;;15.74;47.54;101717.53;15722068;28;20052;-52
2023/05/24 12:16:32;;;;;;;0.70;0.57;;;;;;;15.79;47.17;101712.28;15721992;28;20044;-54
2023/05/24 12:24:10;;;;;;;7.22;0.90;;;;;;;16.24;45.07;101704.78;15742385;28;20041;-51
2023/05/24 12:31:47;;;;;;;0.82;0.50;;;;;;;16.15;46.09;101708.84;15707663;28;20041;-51
2023/05/24 12:39:22;;;;;;;2.78;0.60;;;;;;;16.45;47.56;101713.50;15742735;28;20458;-50
2023/05/24 12:46:57;;;;;;;0.55;0.45;;;;;;;15.79;47.94;101721.22;15742264;28;20039;-51
2023/05/24 12:54:31;;;;;;;2.30;0.63;;;;;;;15.88;47.84;101712.84;15724053;28;20037;-49
2023/05/24 13:02:06;;;;;;;3.63;0.57;;;;;;;15.25;47.38;101711.81;15762445;28;20094;-50
2023/05/24 13:09:40;;;;;;;0.32;0.20;;;;;;;16.20;46.27;101709.00;15737438;28;20037;-54
2023/05/24 13:17:14;;;;;;;2.38;0.68;;;;;;;16.61;44.22;101712.09;15737376;28;20053;-51
2023/05/24 13:24:50;;;;;;;2.45;1.20;;;;;;;16.68;43.64;101704.72;15740245;28;20467;-51
2023/05/24 13:32:23;;;;;;;0.30;0.22;;;;;;;16.49;45.60;101701.19;15720359;28;20040;-51
2023/05/24 13:39:57;;;;;;;0.75;0.60;;;;;;;16.43;45.45;101711.03;15718433;28;20048;-51
2023/05/24 13:47:30;;;;;;;1.35;0.75;;;;;;;16.70;45.61;101711.56;15728394;28;20067;-51
2023/05/24 13:55:05;;;;;;;2.28;1.20;;;;;;;15.77;49.00;101717.09;15777635;28;20497;-50
2023/05/24 14:02:38;;;;;;;0.15;0.15;;;;;;;16.46;47.96;101720.59;15702592;28;20044;-52
2023/05/24 14:10:13;;;;;;;1.23;0.65;;;;;;;15.55;48.81;101722.00;15720035;28;20036;-50
2023/05/24 14:17:46;;;;;;;2.80;0.57;;;;;;;16.01;48.62;101715.44;15733525;28;20052;-50
2023/05/24 14:25:21;;;;;;;0.47;0.45;;;;;;;16.20;49.41;101719.00;15716071;28;20062;-51
2023/05/24 14:32:54;;;;;;;1.85;0.75;;;;;;;16.48;49.13;101715.78;15736023;28;20045;-50
2023/05/24 14:40:28;;;;;;;0.73;0.40;;;;;;;16.13;49.46;101720.94;15735504;28;20066;-50
2023/05/24 14:48:01;;;;;;;1.25;0.80;;;;;;;16.91;46.76;101714.88;15682584;28;20059;-50
2023/05/24 14:55:36;;;;;;;4.75;1.05;;;;;;;17.56;47.03;101720.41;15773002;28;20245;-55
2023/05/24 15:03:11;;;;;;;1.33;0.40;;;;;;;16.61;46.99;101715.63;15735480;28;20072;-51
2023/05/24 15:10:45;;;;;;;0.40;0.35;;;;;;;15.71;48.58;101720.66;15737145;28;20040;-47
2023/05/24 15:18:18;;;;;;;2.00;0.47;;;;;;;16.52;47.60;101708.88;15732552;28;20106;-49
2023/05/24 15:25:53;;;;;;;1.25;0.55;;;;;;;16.45;46.54;101711.63;15732253;28;20041;-49
2023/05/24 15:33:26;;;;;;;8.20;1.33;;;;;;;16.23;48.11;101708.56;15733035;28;20118;-47
2023/05/24 15:41:02;;;;;;;0.93;0.75;;;;;;;16.45;47.03;101703.50;15728906;28;20443;-49
2023/05/24 15:48:35;;;;;;;0.73;0.40;;;;;;;16.20;48.67;101716.28;15747985;28;20139;-50
2023/05/24 15:56:10;;;;;;;1.15;0.65;;;;;;;15.43;48.93;101711.03;15698412;28;20053;-48
2023/05/24 16:03:43;;;;;;;0.30;0.30;;;;;;;15.57;49.56;101711.78;15752580;28;20174;-46
2023/05/24 16:11:17;;;;;;;;;;;;;;;15.93;47.90;101711.13;15745193;28;20107;-46
2023/05/24 16:18:50;;;;;;;0.38;0.30;;;;;;;15.67;49.73;101714.88;15714141;28;19921;-47
2023/05/24 16:26:25;;;;;;;16.67;1.27;;;;;;;15.55;48.44;101713.91;15694053;28;20040;-50
2023/05/24 16:33:59;;;;;;;0.63;0.30;;;;;;;16.07;48.86;101701.81;15739833;28;20426;-49
2023/05/24 16:41:36;;;;;;;0.95;0.80;;;;;;;15.41;48.94;101706.91;15718884;28;20055;-49
2023/05/24 16:49:09;;;;;;;1.45;0.75;;;;;;;15.46;48.97;101701.69;15738503;28;20052;-50
2023/05/24 16:56:43;;;;;;;0.75;0.55;;;;;;;15.74;48.72;101709.41;15726425;28;20040;-50
2023/05/24 17:04:19;;;;;;;7.88;0.50;;;;;;;15.68;50.42;101702.19;15714869;28;20037;-53
2023/05/24 17:11:53;;;;;;;1.55;0.47;;;;;;;15.49;49.64;101714.78;15739005;28;20086;-50
2023/05/24 17:19:26;;;;;;;1.20;0.40;;;;;;;15.77;49.23;101714.38;15738923;28;20499;-45
2023/05/24 17:27:02;;;;;;;0.95;0.70;;;;;;;15.90;49.39;101717.00;15738712;28;20048;-47
2023/05/24 17:34:35;;;;;;;0.80;0.68;;;;;;;14.98;50.89;101724.63;15720709;28;20041;-49
2023/05/24 17:42:10;;;;;;;0.20;0.20;;;;;;;15.61;51.24;101721.13;15718894;28;20501;-47
2023/05/24 17:49:42;;;;;;;0.65;0.55;;;;;;;15.44;51.27;101730.84;15710759;28;20041;-47
2023/05/24 17:57:17;;;;;;;1.70;0.87;;;;;;;15.47;51.07;101723.09;15781765;28;20032;-46
2023/05/24 18:04:51;;;;;;;4.32;2.15;;;;;;;15.60;51.56;101733.00;15754155;28;20037;-48
2023/05/24 18:12:26;;;;;;;7.93;1.00;;;;;;;14.92;53.08;101738.16;15761609;28;20040;-49
2023/05/24 18:19:59;;;;;;;1.83;1.33;;;;;;;14.56;53.48;101739.56;15742837;28;20498;-47
2023/05/24 18:27:33;;;;;;;1.10;0.87;;;;;;;14.69;53.97;101750.34;15706030;28;20056;-51
2023/05/24 18:35:07;;;;;;;0.20;0.20;;;;;;;14.50;53.73;101762.84;15735799;28;20052;-49
2023/05/24 18:42:41;;;;;;;1.40;0.60;;;;;;;14.14;54.99;101759.75;15732390;28;20044;-48
2023/05/24 18:50:14;;;;;;;0.20;0.20;;;;;;;13.82;56.05;101762.25;15729946;28;20083;-48
2023/05/24 18:57:48;;;;;;;0.80;0.73;;;;;;;14.25;55.51;101770.75;15735057;28;20043;-47
2023/05/24 19:05:21;;;;;;;1.30;0.55;;;;;;;14.34;54.75;101779.47;15741532;28;20083;-46
2023/05/24 19:12:57;;;;;;;5.60;1.25;;;;;;;14.29;55.03;101777.38;15773470;28;20049;-45
2023/05/24 19:20:29;;;;;;;1.60;1.48;;;;;;;14.15;55.37;101789.25;15726830;28;20049;-48
2023/05/24 19:28:03;;;;;;;0.93;0.57;;;;;;;14.03;55.62;101789.06;15729355;28;20042;-48
2023/05/24 19:35:36;;;;;;;4.78;0.73;;;;;;;13.72;57.85;101807.69;15768974;28;20041;-48
2023/05/24 19:43:10;;;;;;;0.77;0.57;;;;;;;13.55;58.16;101817.19;15740915;28;20169;-48
2023/05/24 19:50:43;;;;;;;0.65;0.57;;;;;;;13.37;58.64;101812.38;15749845;28;20107;-49
2023/05/24 19:58:17;;;;;;;3.73;0.73;;;;;;;13.11;59.36;101813.06;15752005;28;20067;-46
2023/05/24 20:05:50;;;;;;;1.20;1.10;;;;;;;13.05;59.37;101822.78;15735009;28;20052;-47
2023/05/24 20:13:24;;;;;;;2.27;1.07;;;;;;;12.74;60.24;101826.78;15714781;28;20028;-49
2023/05/24 20:20:58;;;;;;;0.60;0.55;;;;;;;12.56;60.99;101828.31;15765023;28;20040;-48
2023/05/24 20:28:34;;;;;;;2.33;1.13;;;;;;;12.33;61.69;101831.22;15713498;28;20044;-48
2023/05/24 20:36:07;;;;;;;2.25;1.48;;;;;;;11.99;62.88;101835.50;15760578;28;20044;-47
2023/05/24 20:43:41;;;;;;;4.77;1.83;;;;;;;11.85;63.31;101836.41;15730850;28;20044;-48
2023/05/24 20:51:14;;;;;;;1.58;1.02;;;;;;;11.88;63.14;101839.53;15747763;28;20816;-51
2023/05/24 20:58:51;;;;;;;2.30;1.42;;;;;;;11.72;63.55;101845.13;15744158;22;20053;-49
2023/05/24 21:06:25;;;;;;;4.32;0.73;;;;;;;11.60;64.09;101865.47;15628738;28;20046;-50
2023/05/24 21:13:59;;;;;;;1.90;1.50;;;;;;;11.52;63.85;101863.75;15600060;28;20076;-52
2023/05/24 21:21:31;;;;;;;1.40;0.52;;;;;;;11.41;64.27;101869.59;15578092;28;20176;-53
2023/05/24 21:29:06;;;;;;;1.63;0.93;;;;;;;11.27;64.38;101868.56;15592215;28;20077;-51
2023/05/24 21:36:38;;;;;;;2.00;0.77;;;;;;;11.09;64.79;101876.19;15577835;28;20046;-54
2023/05/24 21:44:13;;;;;;;1.00;0.60;;;;;;;11.02;65.22;101886.03;15607263;28;20045;-53
2023/05/24 21:51:45;;;;;;;1.05;0.93;;;;;;;10.83;64.99;101879.34;15585002;28;20076;-51
2023/05/24 21:59:20;;;;;;;7.03;1.50;;;;;;;10.68;65.74;101892.75;15578130;28;20042;-52
2023/05/24 22:06:53;;;;;;;0.95;0.70;;;;;;;9.85;68.58;101899.75;15600414;28;20319;-50
2023/05/24 22:14:27;;;;;;;1.57;1.23;;;;;;;10.45;66.42;101907.06;15612361;28;20061;-50
2023/05/24 22:22:00;;;;;;;7.32;1.40;;;;;;;10.41;66.39;101912.97;15619349;28;20095;-51
2023/05/24 22:29:34;;;;;;;1.43;1.17;;;;;;;10.35;66.30;101908.28;15647695;28;20052;-52
2023/05/24 22:37:07;;;;;;;0.88;0.68;;;;;;;10.33;66.32;101911.16;15630363;28;20083;-50
2023/05/24 22:44:41;;;;;;;1.40;0.70;;;;;;;10.09;66.60;101917.50;15639409;28;20063;-49
2023/05/24 22:52:15;;;;;;;3.50;1.55;;;;;;;10.13;66.57;101910.78;15603966;28;20449;-49
2023/05/24 22:59:49;;;;;;;1.20;0.85;;;;;;;10.03;66.65;101910.19;15590356;28;20115;-50
2023/05/24 23:07:22;;;;;;;0.73;0.73;;;;;;;9.98;67.09;101904.53;15573954;28;20042;-51
2023/05/24 23:14:58;;;;;;;0.63;0.63;;;;;;;9.92;66.89;101903.38;15613659;28;20841;-53
2023/05/24 23:22:31;;;;;;;1.50;0.77;;;;;;;9.75;67.34;101915.22;15612374;28;20444;-51
2023/05/24 23:30:06;;;;;;;1.77;1.17;;;;;;;9.67;67.18;101915.25;15607130;28;20041;-50
2023/05/24 23:37:39;;;;;;;1.10;1.00;;;;;;;9.70;67.15;101913.06;15624524;28;20053;-52
2023/05/24 23:45:15;;;;;;;3.97;1.40;;;;;;;9.36;67.53;101901.81;15622955;28;20409;-52
2023/05/24 23:52:48;;;;;;;4.88;1.50;;;;;;;9.42;67.45;101901.97;15625490;28;20037;-52
